createdAt,value
2023-04-19T00:02:26.797Z,79.50
2023-04-19T00:05:29.231Z,79.40
2023-04-19T00:08:32.660Z,79.40
2023-04-19T00:11:34.321Z,79.40
2023-04-19T00:14:36.077Z,79.50
2023-04-19T00:17:38.117Z,79.70
2023-04-19T00:20:39.846Z,79.80
2023-04-19T00:23:41.813Z,80.00
2023-04-19T00:26:44.120Z,80.20
2023-04-19T00:29:45.782Z,80.30
2023-04-19T00:32:47.523Z,80.50
2023-04-19T00:35:49.217Z,80.60
2023-04-19T00:38:50.891Z,80.80
2023-04-19T00:41:53.134Z,81.00
2023-04-19T00:44:54.889Z,81.10
2023-04-19T00:47:56.745Z,81.20
2023-04-19T00:50:58.550Z,81.30
2023-04-19T00:54:00.252Z,81.40
2023-04-19T00:57:01.959Z,81.60
2023-04-19T01:00:06.667Z,81.60
2023-04-19T01:03:09.111Z,81.70
2023-04-19T01:06:11.008Z,81.70
2023-04-19T01:09:12.644Z,81.80
2023-04-19T01:12:14.346Z,81.80
2023-04-19T01:15:15.977Z,81.90
2023-04-19T01:18:19.297Z,81.90
2023-04-19T01:21:22.551Z,81.90
2023-04-19T01:24:24.282Z,81.90
2023-04-19T01:27:26.151Z,81.90
2023-04-19T01:30:27.872Z,81.80
2023-04-19T01:33:29.511Z,81.90
2023-04-19T01:36:31.409Z,81.80
2023-04-19T01:39:33.097Z,81.80
2023-04-19T01:42:34.739Z,81.70
2023-04-19T01:45:36.951Z,81.70
2023-04-19T01:48:38.884Z,81.70
2023-04-19T01:51:40.531Z,81.50
2023-04-19T01:54:42.231Z,81.40
2023-04-19T01:57:44.360Z,81.30
2023-04-19T02:00:46.225Z,81.20
2023-04-19T02:03:48.118Z,81.20
2023-04-19T02:06:50.174Z,81.10
2023-04-19T02:09:51.817Z,81.20
2023-04-19T02:12:53.541Z,81.20
2023-04-19T02:15:55.285Z,81.20
2023-04-19T02:18:56.964Z,81.20
2023-04-19T02:22:01.824Z,81.10
2023-04-19T02:25:04.403Z,81.10
2023-04-19T02:28:06.231Z,81.10
2023-04-19T02:31:08.546Z,81.00
2023-04-19T02:34:10.244Z,81.00
2023-04-19T02:37:12.055Z,81.10
2023-04-19T02:40:13.704Z,81.20
2023-04-19T02:43:15.402Z,81.40
2023-04-19T02:46:17.608Z,81.40
2023-04-19T02:49:19.692Z,81.50
2023-04-19T02:52:21.328Z,81.60
2023-04-19T02:55:23.029Z,81.80
2023-04-19T02:58:24.838Z,82.00
2023-04-19T03:01:26.781Z,82.00
2023-04-19T03:04:29.026Z,82.20
2023-04-19T03:07:31.025Z,82.20
2023-04-19T03:10:32.646Z,82.30
2023-04-19T03:13:34.328Z,82.40
2023-04-19T03:16:36.577Z,82.50
2023-04-19T03:19:38.543Z,82.50
2023-04-19T03:22:40.241Z,82.70
2023-04-19T03:25:41.892Z,82.80
2023-04-19T03:28:43.784Z,82.80
2023-04-19T03:31:45.591Z,82.90
2023-04-19T03:34:47.250Z,83.00
2023-04-19T03:37:49.122Z,83.00
2023-04-19T03:40:51.234Z,83.00
2023-04-19T03:43:52.947Z,83.10
2023-04-19T03:46:54.713Z,83.20
2023-04-19T03:49:57.379Z,83.20
2023-04-19T03:52:59.055Z,83.30
2023-04-19T03:56:01.091Z,83.50
2023-04-19T03:59:02.734Z,83.60
2023-04-19T04:02:05.723Z,83.70
2023-04-19T04:05:07.886Z,83.70
2023-04-19T04:08:09.822Z,83.70
2023-04-19T04:11:11.614Z,83.70
2023-04-19T04:14:13.410Z,83.60
2023-04-19T04:17:15.435Z,83.60
2023-04-19T04:20:17.110Z,83.50
2023-04-19T04:23:21.394Z,83.50
2023-04-19T04:26:30.688Z,83.50
2023-04-19T04:29:33.171Z,83.40
2023-04-19T04:32:35.842Z,83.40
2023-04-19T04:35:38.522Z,83.40
2023-04-19T04:38:40.852Z,83.50
2023-04-19T04:41:42.656Z,83.50
2023-04-19T04:44:44.967Z,83.70
2023-04-19T04:47:46.810Z,83.70
2023-04-19T04:50:48.472Z,83.80
2023-04-19T04:53:50.112Z,83.90
2023-04-19T04:56:52.136Z,83.90
2023-04-19T04:59:53.905Z,83.90
2023-04-19T05:02:55.750Z,83.90
2023-04-19T05:05:57.728Z,84.00
2023-04-19T05:08:59.368Z,84.00
2023-04-19T05:12:02.201Z,84.00
2023-04-19T05:15:04.082Z,83.90
2023-04-19T05:18:06.168Z,83.90
2023-04-19T05:21:10.402Z,83.80
2023-04-19T05:24:12.111Z,83.90
2023-04-19T05:27:13.798Z,83.80
2023-04-19T05:30:15.630Z,83.60
2023-04-19T05:33:17.284Z,83.50
2023-04-19T05:36:19.092Z,83.30
2023-04-19T05:39:20.850Z,83.20
2023-04-19T05:42:22.521Z,83.00
2023-04-19T05:45:25.600Z,82.90
2023-04-19T05:48:28.301Z,82.80
2023-04-19T05:51:29.988Z,82.70
2023-04-19T05:54:35.776Z,82.60
2023-04-19T05:57:37.684Z,82.60
2023-04-19T06:00:39.345Z,82.60
2023-04-19T06:03:41.191Z,82.60
2023-04-19T06:06:43.248Z,82.60
2023-04-19T06:09:44.906Z,82.50
2023-04-19T06:12:46.586Z,82.50
2023-04-19T06:15:48.527Z,82.50
2023-04-19T06:18:50.668Z,82.40
2023-04-19T06:21:52.354Z,82.20
2023-04-19T06:25:03.711Z,82.20
2023-04-19T06:28:05.571Z,82.00
2023-04-19T06:31:07.590Z,81.90
2023-04-19T06:34:11.002Z,81.90
2023-04-19T06:37:13.097Z,81.80
2023-04-19T06:40:14.811Z,81.70
2023-04-19T06:43:16.731Z,81.60
2023-04-19T06:46:18.609Z,81.50
2023-04-19T06:49:20.364Z,81.40
2023-04-19T06:52:22.123Z,81.20
2023-04-19T06:55:23.884Z,81.10
2023-04-19T06:58:25.742Z,81.10
2023-04-19T07:01:27.423Z,81.10
2023-04-19T07:04:29.294Z,81.10
2023-04-19T07:07:31.301Z,81.00
2023-04-19T07:10:32.988Z,81.00
2023-04-19T07:13:34.628Z,80.90
2023-04-19T07:16:36.324Z,80.90
2023-04-19T07:19:38.229Z,80.70
2023-04-19T07:22:40.116Z,80.50
2023-04-19T07:25:41.750Z,80.30
2023-04-19T07:28:43.446Z,80.10
2023-04-19T07:31:45.345Z,80.10
2023-04-19T07:34:47.017Z,79.90
2023-04-19T07:37:49.711Z,79.70
2023-04-19T07:40:51.733Z,79.50
2023-04-19T07:43:53.405Z,79.30
2023-04-19T07:46:55.178Z,79.00
2023-04-19T07:49:56.973Z,78.90
2023-04-19T07:52:58.731Z,78.70
2023-04-19T07:56:00.488Z,78.50
2023-04-19T07:59:08.625Z,78.20
2023-04-19T08:02:11.398Z,77.90
2023-04-19T08:05:14.230Z,77.70
2023-04-19T08:08:16.086Z,77.40
2023-04-19T08:11:17.817Z,77.00
2023-04-19T08:14:32.238Z,76.60
2023-04-19T08:17:41.724Z,76.00
2023-04-19T08:20:44.913Z,75.30
2023-04-19T08:23:48.522Z,75.00
2023-04-19T08:26:53.935Z,75.10
2023-04-19T08:29:56.122Z,75.30
2023-04-19T08:32:57.826Z,75.50
2023-04-19T08:35:59.544Z,75.50
2023-04-19T08:39:29.225Z,75.70
2023-04-19T08:42:33.233Z,75.60
2023-04-19T08:45:38.393Z,75.60
2023-04-19T08:48:40.275Z,75.50
2023-04-19T08:51:42.008Z,75.30
2023-04-19T08:54:43.655Z,75.30
2023-04-19T08:57:45.614Z,75.30
2023-04-19T09:00:47.474Z,75.10
2023-04-19T09:04:02.491Z,74.80
2023-04-19T09:07:26.005Z,74.60
2023-04-19T09:10:27.707Z,74.30
2023-04-19T09:13:29.879Z,74.00
2023-04-19T09:16:32.558Z,73.90
2023-04-19T09:19:48.725Z,73.90
2023-04-19T09:23:03.961Z,73.70
2023-04-19T09:26:22.727Z,73.70
2023-04-19T09:29:25.348Z,73.70
2023-04-19T09:32:27.547Z,73.50
2023-04-19T09:35:41.261Z,73.40
2023-04-19T09:39:01.794Z,73.00
2023-04-19T09:42:03.570Z,72.80
2023-04-19T09:48:10.839Z,72.30
2023-04-19T09:51:14.562Z,72.00
2023-04-19T09:54:18.162Z,71.50
2023-04-19T09:57:19.830Z,71.30
2023-04-19T10:00:22.810Z,71.10
2023-04-19T10:03:24.539Z,70.70
2023-04-19T10:06:45.643Z,70.70
2023-04-19T10:16:04.879Z,70.70
2023-04-19T10:19:20.525Z,70.80
2023-04-19T10:22:22.493Z,70.80
2023-04-19T10:25:30.753Z,70.70
2023-04-19T10:28:34.131Z,70.40
2023-04-19T10:31:35.873Z,69.70
2023-04-19T10:34:39.392Z,69.40
2023-04-19T10:37:42.003Z,69.00
2023-04-19T10:40:54.952Z,68.70
2023-04-19T10:43:57.579Z,68.50
2023-04-19T10:46:59.474Z,68.20
2023-04-19T10:50:04.607Z,68.00
2023-04-19T10:53:43.889Z,68.00
2023-04-19T10:57:02.597Z,67.70
2023-04-19T11:00:21.453Z,67.60
2023-04-19T11:03:45.290Z,67.50
2023-04-19T11:06:53.600Z,67.20
2023-04-19T11:09:55.530Z,66.80
2023-04-19T11:12:57.775Z,66.70
2023-04-19T11:15:59.689Z,66.70
2023-04-19T11:19:01.402Z,66.40
2023-04-19T11:22:03.074Z,66.30
2023-04-19T11:25:28.886Z,66.10
2023-04-19T11:28:32.660Z,66.20
2023-04-19T11:31:34.368Z,66.70
2023-04-19T11:34:42.281Z,66.50
2023-04-19T11:37:43.928Z,66.10
2023-04-19T11:40:45.587Z,65.60
2023-04-19T11:43:48.388Z,65.30
2023-04-19T11:47:00.089Z,65.00
2023-04-19T11:50:30.229Z,64.70
2023-04-19T11:53:32.556Z,64.70
2023-04-19T11:56:34.262Z,64.40
2023-04-19T11:59:36.319Z,64.00
2023-04-19T12:02:43.831Z,63.30
2023-04-19T12:06:00.092Z,62.70
2023-04-19T12:09:06.658Z,62.30
2023-04-19T12:12:08.320Z,61.90
2023-04-19T12:15:10.787Z,61.70
2023-04-19T12:18:12.867Z,61.50
2023-04-19T12:21:27.541Z,60.70
2023-04-19T12:24:29.177Z,60.70
2023-04-19T12:27:31.861Z,60.80
2023-04-19T12:30:35.051Z,60.70
2023-04-19T12:33:36.659Z,60.70
2023-04-19T12:36:38.359Z,60.20
2023-04-19T12:39:40.201Z,60.00
2023-04-19T12:42:41.885Z,59.60
2023-04-19T12:45:43.635Z,59.10
2023-04-19T12:48:45.387Z,58.90
2023-04-19T12:51:47.763Z,58.80
2023-04-19T12:54:49.597Z,58.70
2023-04-19T12:57:51.240Z,58.30
2023-04-19T13:00:52.988Z,58.50
2023-04-19T13:03:58.128Z,58.90
2023-04-19T13:07:00.868Z,59.20
2023-04-19T13:10:03.375Z,59.30
2023-04-19T13:13:05.045Z,59.20
2023-04-19T13:16:07.958Z,58.70
2023-04-19T13:19:09.763Z,58.40
2023-04-19T13:22:11.540Z,58.30
2023-04-19T13:25:13.195Z,57.90
2023-04-19T13:28:15.841Z,57.70
2023-04-19T13:31:17.538Z,57.60
2023-04-19T13:34:19.422Z,57.80
2023-04-19T13:37:21.145Z,57.80
2023-04-19T13:40:22.889Z,57.90
2023-04-19T13:43:24.572Z,57.80
2023-04-19T13:46:26.314Z,57.70
2023-04-19T13:49:27.994Z,57.70
2023-04-19T13:52:29.634Z,57.80
2023-04-19T13:55:31.282Z,57.90
2023-04-19T13:58:33.011Z,57.80
2023-04-19T14:01:35.796Z,57.70
2023-04-19T14:04:37.496Z,57.60
2023-04-19T14:07:42.339Z,57.60
2023-04-19T14:10:44.010Z,57.30
2023-04-19T14:13:45.645Z,56.90
2023-04-19T14:16:47.464Z,56.20
2023-04-19T14:19:49.171Z,55.90
2023-04-19T14:22:50.873Z,55.30
2023-04-19T14:25:52.565Z,54.80
2023-04-19T14:28:54.236Z,54.40
2023-04-19T14:31:56.097Z,54.10
2023-04-19T14:34:57.864Z,54.00
2023-04-19T14:37:59.690Z,53.90
2023-04-19T14:41:01.533Z,54.00
2023-04-19T14:44:03.267Z,54.10
2023-04-19T14:47:04.939Z,54.10
2023-04-19T14:50:07.042Z,53.90
2023-04-19T14:53:08.981Z,54.00
2023-04-19T14:56:14.786Z,54.00
2023-04-19T14:59:16.645Z,53.90
2023-04-19T15:02:18.591Z,53.60
2023-04-19T15:05:22.454Z,53.50
2023-04-19T15:08:30.331Z,53.20
2023-04-19T15:11:32.537Z,53.00
2023-04-19T15:14:34.451Z,52.70
2023-04-19T15:17:36.167Z,52.00
2023-04-19T15:20:37.846Z,51.90
2023-04-19T15:23:39.559Z,51.20
2023-04-19T15:26:43.590Z,50.70
2023-04-19T15:29:47.290Z,50.20
2023-04-19T15:32:49.018Z,49.20
2023-04-19T15:35:54.405Z,48.40
2023-04-19T15:38:57.000Z,48.00
2023-04-19T15:41:58.868Z,47.20
2023-04-19T15:45:00.620Z,46.70
2023-04-19T15:48:02.336Z,46.20
2023-04-19T15:51:04.895Z,45.80
2023-04-19T15:54:06.533Z,45.40
2023-04-19T15:57:09.221Z,44.90
2023-04-19T16:00:11.898Z,44.00
2023-04-19T16:03:13.760Z,44.00
2023-04-19T16:06:15.637Z,43.50
2023-04-19T16:09:17.533Z,43.20
2023-04-19T16:12:19.330Z,42.80
2023-04-19T16:15:21.138Z,42.30
2023-04-19T16:18:23.814Z,42.20
2023-04-19T16:21:28.595Z,41.90
2023-04-19T16:24:30.327Z,41.60
2023-04-19T16:27:32.037Z,41.60
2023-04-19T16:30:33.685Z,41.70
2023-04-19T16:33:35.372Z,41.50
2023-04-19T16:36:37.127Z,41.20
2023-04-19T16:39:38.779Z,41.30
2023-04-19T16:42:41.214Z,41.20
2023-04-19T16:45:42.993Z,41.10
2023-04-19T16:48:44.712Z,41.20
2023-04-19T16:51:46.364Z,41.40
2023-04-19T16:54:48.002Z,41.90
2023-04-19T16:57:50.965Z,42.40
2023-04-19T17:00:52.559Z,42.70
2023-04-19T17:03:54.540Z,43.40
2023-04-19T17:06:56.669Z,43.60
2023-04-19T17:09:59.010Z,43.90
2023-04-19T17:13:00.834Z,44.00
2023-04-19T17:16:03.001Z,44.00
2023-04-19T17:19:04.740Z,44.20
2023-04-19T17:22:07.058Z,44.10
2023-04-19T17:25:08.959Z,44.00
2023-04-19T17:28:10.620Z,44.10
2023-04-19T17:31:12.350Z,44.30
2023-04-19T17:34:14.038Z,44.20
2023-04-19T17:37:15.714Z,44.30
2023-04-19T17:40:17.525Z,44.40
2023-04-19T17:43:20.835Z,44.70
2023-04-19T17:46:22.736Z,45.10
2023-04-19T17:49:26.483Z,45.70
2023-04-19T17:52:28.123Z,46.00
2023-04-19T17:55:29.829Z,46.40
2023-04-19T17:58:32.596Z,46.50
2023-04-19T18:01:35.017Z,46.50
2023-04-19T18:04:37.022Z,46.50
2023-04-19T18:07:38.880Z,46.80
2023-04-19T18:10:40.590Z,46.50
2023-04-19T18:13:42.433Z,46.10
2023-04-19T18:16:44.232Z,46.00
2023-04-19T18:19:46.058Z,46.20
2023-04-19T18:22:51.057Z,46.90
2023-04-19T18:25:54.162Z,48.00
2023-04-19T18:28:55.886Z,48.90
2023-04-19T18:31:57.654Z,49.60
2023-04-19T18:34:59.850Z,50.40
2023-04-19T18:38:01.682Z,50.80
2023-04-19T18:41:03.370Z,51.30
2023-04-19T18:47:09.725Z,52.50
2023-04-19T18:50:12.028Z,52.80
2023-04-19T18:53:13.771Z,53.10
2023-04-19T18:56:16.786Z,53.50
2023-04-19T18:59:18.784Z,53.80
2023-04-19T19:02:21.024Z,54.20
2023-04-19T19:05:22.882Z,54.50
2023-04-19T19:08:24.748Z,55.00
2023-04-19T19:11:51.225Z,55.60
2023-04-19T19:14:48.243Z,56.50
2023-04-19T19:17:50.583Z,57.00
2023-04-19T19:20:53.524Z,57.40
2023-04-19T19:23:57.765Z,57.90
2023-04-19T19:27:03.937Z,58.20
2023-04-19T19:30:07.638Z,58.50
2023-04-19T19:33:09.603Z,58.90
2023-04-19T19:36:11.595Z,59.10
2023-04-19T19:39:13.343Z,59.50
2023-04-19T19:42:17.877Z,59.70
2023-04-19T19:45:19.752Z,60.20
2023-04-19T19:48:21.523Z,60.40
2023-04-19T19:51:52.432Z,60.90
2023-04-19T19:54:44.726Z,61.20
2023-04-19T20:00:52.908Z,61.60
2023-04-19T20:03:55.904Z,61.80
2023-04-19T20:10:04.962Z,62.00
2023-04-19T20:13:06.750Z,62.20
2023-04-19T20:16:10.037Z,62.40
2023-04-19T20:19:13.134Z,62.50
2023-04-19T20:22:14.767Z,62.70
2023-04-19T20:25:16.388Z,62.90
2023-04-19T20:28:18.261Z,62.90
2023-04-19T20:31:20.971Z,63.00
2023-04-19T20:34:23.715Z,63.10
2023-04-19T20:37:26.888Z,63.20
2023-04-19T20:40:33.023Z,63.30
2023-04-19T20:43:34.804Z,63.40
2023-04-19T20:46:36.538Z,63.50
2023-04-19T20:49:39.062Z,63.60
2023-04-19T20:52:41.029Z,63.70
2023-04-19T20:55:43.564Z,63.70
2023-04-19T20:58:46.329Z,63.90
2023-04-19T21:01:48.166Z,64.20
2023-04-19T21:04:49.926Z,64.40
2023-04-19T21:07:51.817Z,64.50
2023-04-19T21:10:53.577Z,64.60
2023-04-19T21:13:55.217Z,64.70
2023-04-19T21:16:59.111Z,65.00
2023-04-19T21:20:02.466Z,65.10
2023-04-19T21:23:04.229Z,65.00
2023-04-19T21:26:06.957Z,65.00
2023-04-19T21:29:08.595Z,65.00
2023-04-19T21:32:10.277Z,65.00
2023-04-19T21:35:12.069Z,65.10
2023-04-19T21:38:13.753Z,65.20
2023-04-19T21:41:15.457Z,65.30
2023-04-19T21:44:17.122Z,65.40
2023-04-19T21:47:18.881Z,65.60
2023-04-19T21:50:20.645Z,65.60
2023-04-19T21:53:22.297Z,65.90
2023-04-19T21:56:24.972Z,66.00
2023-04-19T21:59:28.189Z,66.10
2023-04-19T22:02:30.044Z,66.20
2023-04-19T22:05:31.731Z,66.40
2023-04-19T22:08:33.951Z,66.70
2023-04-19T22:11:35.633Z,66.70
2023-04-19T22:14:37.499Z,66.80
2023-04-19T22:17:40.333Z,66.90
2023-04-19T22:20:42.884Z,66.90
2023-04-19T22:23:44.643Z,67.00
2023-04-19T22:26:46.272Z,67.10
2023-04-19T22:29:47.921Z,67.20
2023-04-19T22:32:49.622Z,67.30
2023-04-19T22:35:51.276Z,67.40
2023-04-19T22:38:52.906Z,67.60
2023-04-19T22:41:54.620Z,67.80
2023-04-19T22:44:56.317Z,67.90
2023-04-19T22:47:58.039Z,67.90
2023-04-19T22:51:00.447Z,68.10
2023-04-19T22:54:03.084Z,68.10
2023-04-19T22:57:05.957Z,68.20
2023-04-19T23:00:10.622Z,68.20
2023-04-19T23:03:12.332Z,68.20
2023-04-19T23:06:15.083Z,68.40
2023-04-19T23:09:18.132Z,68.50
2023-04-19T23:12:20.207Z,68.50
2023-04-19T23:15:22.994Z,68.70
2023-04-19T23:18:24.690Z,68.70
2023-04-19T23:21:26.785Z,68.90
2023-04-19T23:24:28.493Z,69.00
2023-04-19T23:27:31.181Z,69.10
2023-04-19T23:30:32.879Z,69.30
2023-04-19T23:33:34.630Z,69.50
2023-04-19T23:36:37.260Z,69.60
2023-04-19T23:39:38.898Z,69.80
2023-04-19T23:42:40.842Z,69.90
2023-04-19T23:45:42.510Z,70.10
2023-04-19T23:48:44.283Z,70.20
2023-04-19T23:51:48.751Z,70.40
2023-04-19T23:54:50.471Z,70.50
2023-04-19T23:57:52.130Z,70.60
